Time;durP1;ratioP1;P1;durP2;ratioP2;P2;SDS_P1;SDS_P2;PMS_P1;PMS_P2;Temp;Humidity;BMP_temperature;BMP_pressure;BME280_temperature;BME280_humidity;BME280_pressure;Samples;Min_cycle;Max_cycle;Signal;HPM_P1;HPM_P2
2022/12/19 00:00:16;;;;;;;68.07;25.95;;;;;;;0.96;100.00;101559.06;5052969;28;20017;-42
2022/12/19 00:02:41;;;;;;;57.80;24.98;;;;;;;1.01;100.00;101561.41;5063219;28;20341;-43
2022/12/19 00:05:07;;;;;;;77.82;28.15;;;;;;;1.03;100.00;101560.38;5065408;28;20455;-42
2022/12/19 00:07:32;;;;;;;67.75;24.58;;;;;;;0.96;100.00;101561.72;5068963;28;20029;-42
2022/12/19 00:09:57;;;;;;;67.72;26.20;;;;;;;1.00;100.00;101570.28;5065207;28;20457;-42
2022/12/19 00:12:23;;;;;;;58.25;24.67;;;;;;;1.09;100.00;101559.09;5065978;28;20542;-42
2022/12/19 00:14:48;;;;;;;61.53;25.67;;;;;;;1.12;100.00;101558.88;5057002;28;20104;-42
2022/12/19 00:17:13;;;;;;;58.40;24.17;;;;;;;1.15;100.00;101536.63;5059979;28;20028;-42
2022/12/19 00:19:39;;;;;;;59.80;24.23;;;;;;;1.22;100.00;101527.31;5072943;28;20031;-42
2022/12/19 00:22:04;;;;;;;56.65;23.25;;;;;;;1.27;100.00;101525.19;5073389;28;20020;-42
2022/12/19 00:24:30;;;;;;;55.20;23.23;;;;;;;1.29;100.00;101523.25;5071683;28;20053;-42
2022/12/19 00:26:55;;;;;;;55.15;24.88;;;;;;;1.30;100.00;101525.81;5062389;28;20043;-43
2022/12/19 00:29:20;;;;;;;60.95;24.48;;;;;;;1.30;100.00;101535.59;5063164;28;20024;-42
2022/12/19 00:31:46;;;;;;;58.75;24.00;;;;;;;1.25;100.00;101521.78;5044740;28;20027;-42
2022/12/19 00:34:11;;;;;;;61.47;24.13;;;;;;;1.34;100.00;101509.69;5054296;28;20082;-43
2022/12/19 00:36:36;;;;;;;59.45;24.90;;;;;;;1.34;100.00;101515.84;5063958;28;20025;-42
2022/12/19 00:39:03;;;;;;;66.05;26.05;;;;;;;1.34;100.00;101507.03;5053046;28;20017;-43
2022/12/19 00:41:30;;;;;;;60.35;24.27;;;;;;;1.38;100.00;101497.94;5053253;28;20345;-40
2022/12/19 00:44:01;;;;;;;51.13;22.57;;;;;;;1.37;100.00;101494.44;5061964;28;20476;-40
2022/12/19 00:46:28;;;;;;;59.22;23.58;;;;;;;1.40;100.00;101494.22;5062447;28;20290;-42
2022/12/19 00:48:53;;;;;;;61.10;24.65;;;;;;;1.44;100.00;101500.97;5067559;28;20456;-43
2022/12/19 00:51:21;;;;;;;57.28;24.13;;;;;;;1.45;100.00;101497.41;5069065;28;20039;-40
2022/12/19 00:53:48;;;;;;;64.97;25.60;;;;;;;1.42;100.00;101492.31;5072636;28;20083;-40
2022/12/19 00:56:19;;;;;;;59.80;24.23;;;;;;;1.52;100.00;101477.41;5071594;28;20034;-41
2022/12/19 00:58:44;;;;;;;68.75;26.00;;;;;;;1.52;100.00;101488.03;5071844;28;20066;-41
2022/12/19 01:01:18;;;;;;;61.55;24.27;;;;;;;1.54;100.00;101470.22;5059477;28;20057;-41
2022/12/19 01:03:44;;;;;;;59.53;25.27;;;;;;;1.65;100.00;101465.97;5070349;28;20478;-41
2022/12/19 01:06:10;;;;;;;54.00;23.63;;;;;;;1.72;100.00;101462.75;5066645;28;20024;-41
2022/12/19 01:08:35;;;;;;;63.60;26.00;;;;;;;1.68;100.00;101466.56;5058186;28;20112;-41
2022/12/19 01:11:01;;;;;;;63.33;25.48;;;;;;;1.74;100.00;101475.94;5054614;28;20375;-42
2022/12/19 01:13:29;;;;;;;65.95;26.52;;;;;;;1.79;100.00;101465.84;5057096;28;20078;-42
2022/12/19 01:15:54;;;;;;;61.97;26.15;;;;;;;1.90;100.00;101457.94;5067225;28;20024;-41
2022/12/19 01:18:20;;;;;;;64.25;25.15;;;;;;;1.93;100.00;101460.38;5060224;28;20503;-41
2022/12/19 01:20:48;;;;;;;68.28;26.92;;;;;;;1.95;100.00;101457.63;5069745;28;20017;-41
2022/12/19 01:23:14;;;;;;;;;;;;;;;2.04;100.00;101466.72;5065024;28;20021;-41
2022/12/19 01:25:40;;;;;;;59.70;24.83;;;;;;;2.03;100.00;101457.03;5054395;28;19920;-41
2022/12/19 01:28:05;;;;;;;64.35;26.75;;;;;;;2.05;100.00;101453.31;5071030;28;20055;-41
2022/12/19 01:30:32;;;;;;;71.40;28.85;;;;;;;2.07;100.00;101440.78;5060135;28;20039;-42
2022/12/19 01:32:58;;;;;;;66.93;29.40;;;;;;;2.10;100.00;101447.66;5071824;28;20484;-42
2022/12/19 01:35:24;;;;;;;74.03;27.88;;;;;;;2.14;100.00;101446.50;5069604;28;20078;-41
2022/12/19 01:37:50;;;;;;;69.70;27.05;;;;;;;2.18;100.00;101424.91;5055732;28;20029;-42
2022/12/19 01:40:15;;;;;;;66.47;28.52;;;;;;;2.20;100.00;101430.09;5062677;28;20535;-42
2022/12/19 01:42:41;;;;;;;63.63;26.95;;;;;;;2.26;100.00;101434.13;5051370;28;20113;-41
2022/12/19 01:45:06;;;;;;;70.75;28.27;;;;;;;2.33;100.00;101430.06;5051089;28;20048;-42
2022/12/19 01:47:44;;;;;;;56.75;25.52;;;;;;;2.32;100.00;101431.03;5063442;28;20333;-41
2022/12/19 01:50:14;;;;;;;;;;;;;;;2.33;100.00;101425.56;5036462;28;20056;-40
2022/12/19 01:52:40;;;;;;;61.40;24.17;;;;;;;2.44;100.00;101432.75;5061726;28;20016;-41
2022/12/19 01:55:06;;;;;;;61.10;25.50;;;;;;;2.44;100.00;101415.97;5052751;28;20374;-41
2022/12/19 01:57:32;;;;;;;64.70;23.75;;;;;;;2.53;100.00;101416.13;5063783;28;20444;-41
2022/12/19 02:00:00;;;;;;;68.15;26.88;;;;;;;2.58;100.00;101413.97;5057914;28;20036;-42
2022/12/19 02:02:31;;;;;;;54.60;24.90;;;;;;;2.60;100.00;101405.88;5056439;28;20602;-40
2022/12/19 02:04:57;;;;;;;61.80;25.23;;;;;;;2.61;100.00;101404.91;5052314;28;20088;-42
2022/12/19 02:07:24;;;;;;;59.83;24.75;;;;;;;2.59;100.00;101398.88;5061753;28;20111;-41
2022/12/19 02:09:54;;;;;;;51.72;23.10;;;;;;;2.62;100.00;101388.00;5054682;28;20024;-39
2022/12/19 02:12:21;;;;;;;61.22;26.08;;;;;;;2.74;100.00;101384.41;5066099;28;20028;-40
2022/12/19 02:14:46;;;;;;;61.00;26.88;;;;;;;2.75;100.00;101380.78;5058684;28;20025;-42
2022/12/19 02:17:36;;;;;;;58.88;25.15;;;;;;;2.74;100.00;101371.13;5055993;28;20096;-39
2022/12/19 02:20:11;;;;;;;68.13;27.55;;;;;;;2.75;100.00;101362.16;5052833;28;20041;-43
2022/12/19 02:23:18;;;;;;;65.80;24.95;;;;;;;2.83;100.00;101365.09;5054633;28;20027;-42
2022/12/19 02:25:53;;;;;;;46.10;19.55;;;;;;;2.81;100.00;101356.38;5070803;28;20040;-43
2022/12/19 02:28:36;;;;;;;60.63;26.13;;;;;;;2.84;100.00;101349.97;5057057;28;20136;-42
2022/12/19 02:31:22;;;;;;;55.80;24.58;;;;;;;2.86;100.00;101348.06;5056981;28;20127;-43
2022/12/19 02:34:07;;;;;;;57.78;24.25;;;;;;;2.90;100.00;101353.97;5050465;28;20352;-43
2022/12/19 02:36:38;;;;;;;53.92;23.42;;;;;;;2.91;100.00;101345.88;5063862;28;20040;-43
2022/12/19 02:39:05;;;;;;;53.80;24.98;;;;;;;2.95;100.00;101342.03;5067518;28;20071;-42
2022/12/19 02:41:43;;;;;;;56.67;23.35;;;;;;;2.96;100.00;101337.56;5063835;28;20123;-42
2022/12/19 02:44:14;;;;;;;50.75;23.13;;;;;;;2.90;100.00;101330.03;5067474;28;20036;-42
2022/12/19 02:46:41;;;;;;;46.22;19.67;;;;;;;3.11;100.00;101339.00;5070187;28;20025;-39
2022/12/19 02:49:07;;;;;;;51.73;22.63;;;;;;;3.13;100.00;101325.56;5059058;28;20025;-40
2022/12/19 02:51:32;;;;;;;42.63;19.55;;;;;;;3.08;100.00;101329.47;5048871;28;20392;-42
2022/12/19 02:53:58;;;;;;;49.92;18.95;;;;;;;3.16;100.00;101328.84;5050385;28;20037;-40
2022/12/19 02:56:33;;;;;;;50.13;21.60;;;;;;;3.27;100.00;101323.50;5050185;28;20106;-41
2022/12/19 02:59:31;;;;;;;43.22;19.33;;;;;;;3.25;100.00;101328.09;5049167;28;20104;-42
2022/12/19 03:02:04;;;;;;;44.60;18.27;;;;;;;3.25;100.00;101336.09;5050454;28;20491;-42
2022/12/19 03:04:55;;;;;;;43.53;18.77;;;;;;;3.25;100.00;101333.44;5050974;28;20039;-43
2022/12/19 03:07:32;;;;;;;42.03;19.02;;;;;;;3.37;100.00;101328.09;5057336;28;20032;-43
2022/12/19 03:10:19;;;;;;;34.33;16.67;;;;;;;3.42;100.00;101328.56;5064941;28;20036;-44
2022/12/19 03:12:57;;;;;;;39.05;16.65;;;;;;;3.43;100.00;101324.94;5068330;28;20025;-44
2022/12/19 03:15:23;;;;;;;38.53;16.63;;;;;;;3.50;100.00;101326.13;5056179;28;20082;-45
2022/12/19 03:17:48;;;;;;;39.28;17.25;;;;;;;3.58;100.00;101326.38;5066018;28;20021;-44
2022/12/19 03:20:31;;;;;;;37.80;15.40;;;;;;;3.62;100.00;101311.00;5060676;28;20476;-44
2022/12/19 03:22:56;;;;;;;33.17;16.20;;;;;;;3.64;100.00;101317.88;5049298;28;20040;-44
2022/12/19 03:25:23;;;;;;;33.15;15.60;;;;;;;3.73;100.00;101322.44;5067442;28;20509;-45
2022/12/19 03:27:49;;;;;;;35.88;16.20;;;;;;;3.67;100.00;101312.31;5068646;28;20041;-45
2022/12/19 03:30:14;;;;;;;36.53;17.33;;;;;;;3.72;100.00;101311.94;5068841;28;20357;-44
2022/12/19 03:32:41;;;;;;;32.83;16.60;;;;;;;3.80;100.00;101312.13;5062296;28;20111;-47
2022/12/19 03:35:14;;;;;;;33.72;15.75;;;;;;;3.83;100.00;101306.56;5069680;28;20044;-44
2022/12/19 03:37:42;;;;;;;30.73;15.05;;;;;;;3.89;100.00;101306.03;5062440;28;20065;-42
2022/12/19 03:40:12;;;;;;;34.25;16.42;;;;;;;3.92;100.00;101307.59;5056550;28;20035;-43
2022/12/19 03:45:38;;;;;;;31.83;14.85;;;;;;;3.97;100.00;101302.75;5050919;28;20174;-44
2022/12/19 03:48:08;;;;;;;30.70;15.32;;;;;;;3.96;100.00;101309.91;5059333;28;20032;-42
2022/12/19 03:50:46;;;;;;;34.08;16.45;;;;;;;4.04;100.00;101311.09;5064975;28;20043;-46
2022/12/19 03:53:31;;;;;;;30.60;16.27;;;;;;;4.04;100.00;101297.75;5062055;28;20447;-44
2022/12/19 03:56:11;;;;;;;26.95;15.15;;;;;;;4.04;100.00;101301.25;5065680;28;20051;-44
2022/12/19 03:58:39;;;;;;;30.23;15.23;;;;;;;4.14;100.00;101293.34;5070722;28;20041;-43
2022/12/19 04:01:05;;;;;;;31.63;16.48;;;;;;;4.21;100.00;101302.50;5055190;28;20052;-43
2022/12/19 04:03:30;;;;;;;33.25;16.58;;;;;;;4.23;100.00;101291.72;5055218;28;20039;-42
2022/12/19 04:05:57;;;;;;;32.38;16.88;;;;;;;4.20;100.00;101287.50;5059773;28;20044;-43
2022/12/19 04:08:23;;;;;;;33.97;16.45;;;;;;;4.21;100.00;101293.66;5071143;28;20501;-43
2022/12/19 04:10:59;;;;;;;35.40;17.73;;;;;;;4.24;100.00;101296.06;5072517;28;20033;-43
2022/12/19 04:13:32;;;;;;;30.67;16.70;;;;;;;4.30;100.00;101283.09;5061857;28;20033;-44
2022/12/19 04:16:00;;;;;;;38.42;18.48;;;;;;;4.32;100.00;101293.63;5058441;28;20044;-43
2022/12/19 04:18:26;;;;;;;37.33;17.65;;;;;;;4.29;100.00;101293.88;5058293;28;20064;-43
2022/12/19 04:20:59;;;;;;;37.30;18.92;;;;;;;4.32;100.00;101277.63;5059268;28;20487;-44
2022/12/19 04:23:31;;;;;;;36.38;18.85;;;;;;;4.37;100.00;101294.91;5065677;28;20036;-44
2022/12/19 04:26:00;;;;;;;34.83;18.15;;;;;;;4.45;100.00;101280.94;5066680;28;20021;-44
2022/12/19 04:28:39;;;;;;;35.03;17.23;;;;;;;4.44;100.00;101289.91;5069725;28;20048;-43
2022/12/19 04:31:05;;;;;;;32.90;16.27;;;;;;;4.49;100.00;101292.19;5065966;28;20037;-44
2022/12/19 04:33:31;;;;;;;34.63;17.40;;;;;;;4.46;100.00;101309.28;5061608;28;20029;-44
2022/12/19 04:35:56;;;;;;;33.30;17.70;;;;;;;4.52;100.00;101282.09;5053780;28;20373;-44
2022/12/19 04:38:21;;;;;;;30.08;16.70;;;;;;;4.64;100.00;101296.19;5061236;28;20557;-45
2022/12/19 04:40:47;;;;;;;30.63;16.27;;;;;;;4.60;100.00;101284.94;5064081;28;20036;-44
2022/12/19 04:43:12;;;;;;;30.83;15.85;;;;;;;4.62;100.00;101285.66;5059643;28;20032;-45
2022/12/19 04:45:40;;;;;;;33.17;16.13;;;;;;;4.67;100.00;101287.09;5064591;28;20031;-45
2022/12/19 04:48:06;;;;;;;;;;;;;;;4.68;100.00;101280.78;5067593;28;20031;-44
2022/12/19 04:50:32;;;;;;;32.90;16.17;;;;;;;4.71;100.00;101293.81;5067360;28;19912;-44
2022/12/19 04:52:57;;;;;;;34.85;18.75;;;;;;;4.74;100.00;101298.88;5052168;28;20564;-46
2022/12/19 04:55:22;;;;;;;37.63;19.52;;;;;;;4.75;100.00;101277.44;5059502;28;20154;-44
2022/12/19 04:57:48;;;;;;;43.30;20.48;;;;;;;4.84;100.00;101286.44;5071615;28;20108;-44
2022/12/19 05:00:14;;;;;;;39.80;21.23;;;;;;;4.92;100.00;101278.63;5072794;28;20016;-46
2022/12/19 05:02:39;;;;;;;43.33;22.90;;;;;;;4.93;100.00;101280.31;5089825;28;20054;-44
2022/12/19 05:05:05;;;;;;;46.10;24.95;;;;;;;4.96;100.00;101300.56;5067590;28;20032;-43
2022/12/19 05:07:30;;;;;;;48.80;25.70;;;;;;;4.97;100.00;101265.72;5067364;28;20062;-44
2022/12/19 05:09:58;;;;;;;46.90;25.05;;;;;;;4.99;100.00;101286.94;5054054;28;20025;-43
2022/12/19 05:12:23;;;;;;;47.80;24.63;;;;;;;4.93;100.00;101253.66;5059685;28;20472;-43
2022/12/19 05:14:49;;;;;;;46.65;26.30;;;;;;;4.99;100.00;101269.09;5054636;28;20031;-43
2022/12/19 05:17:14;;;;;;;47.45;24.48;;;;;;;4.92;100.00;101261.78;5067023;28;20116;-43
2022/12/19 05:19:39;;;;;;;51.97;25.35;;;;;;;4.96;100.00;101264.06;5071132;28;20252;-45
2022/12/19 05:22:05;;;;;;;50.50;25.20;;;;;;;5.04;100.00;101282.06;5063447;28;20024;-45
2022/12/19 05:24:30;;;;;;;49.85;25.52;;;;;;;5.11;100.00;101261.84;5063914;28;20446;-46
2022/12/19 05:26:55;;;;;;;52.83;26.80;;;;;;;5.07;100.00;101271.94;5049850;28;20043;-44
2022/12/19 05:29:21;;;;;;;60.10;29.88;;;;;;;5.17;100.00;101276.47;5058121;28;20024;-45
2022/12/19 05:31:46;;;;;;;51.33;27.02;;;;;;;5.12;100.00;101274.22;5069368;28;20116;-45
2022/12/19 05:34:12;;;;;;;57.50;28.30;;;;;;;5.07;100.00;101277.28;5055542;28;20044;-45
2022/12/19 05:36:37;;;;;;;52.67;26.77;;;;;;;5.05;100.00;101279.25;5057004;28;20051;-44
2022/12/19 05:39:02;;;;;;;55.13;28.33;;;;;;;5.15;100.00;101289.94;5059220;28;20055;-44
2022/12/19 05:41:28;;;;;;;55.25;27.50;;;;;;;5.18;100.00;101288.81;5065981;28;20056;-44
2022/12/19 05:43:55;;;;;;;54.72;27.30;;;;;;;5.25;100.00;101268.63;5062376;28;20146;-44
2022/12/19 05:46:21;;;;;;;51.65;27.92;;;;;;;5.33;100.00;101282.13;5070573;28;20032;-44
2022/12/19 05:48:47;;;;;;;52.08;27.40;;;;;;;5.39;100.00;101264.72;5071236;28;20506;-45
2022/12/19 05:51:12;;;;;;;56.70;27.00;;;;;;;5.37;100.00;101258.66;5070044;28;20036;-46
2022/12/19 05:53:38;;;;;;;53.05;28.33;;;;;;;5.44;100.00;101260.66;5057215;28;20036;-46
2022/12/19 05:56:05;;;;;;;51.33;26.42;;;;;;;5.50;100.00;101270.78;5058777;28;20033;-46
2022/12/19 05:58:30;;;;;;;55.00;26.67;;;;;;;5.49;100.00;101258.41;5050734;28;20033;-46
2022/12/19 06:01:01;;;;;;;50.55;26.70;;;;;;;5.64;100.00;101280.22;5058851;28;20119;-46
2022/12/19 06:03:27;;;;;;;52.10;27.13;;;;;;;5.55;100.00;101267.69;5056288;28;20028;-45
2022/12/19 06:05:52;;;;;;;54.58;27.77;;;;;;;5.47;100.00;101273.72;5052077;28;20381;-45
2022/12/19 06:08:17;;;;;;;53.28;25.73;;;;;;;5.50;100.00;101268.13;5050097;28;20522;-44
2022/12/19 06:10:43;;;;;;;55.55;27.30;;;;;;;5.52;100.00;101280.47;5054432;28;20028;-45
2022/12/19 06:13:08;;;;;;;52.45;28.08;;;;;;;5.54;100.00;101262.50;5050856;28;20036;-44
2022/12/19 06:15:33;;;;;;;60.65;28.73;;;;;;;5.54;100.00;101262.50;5065214;28;20032;-44
2022/12/19 06:17:59;;;;;;;48.90;24.70;;;;;;;5.56;100.00;101261.38;5061814;28;20024;-43
2022/12/19 06:20:24;;;;;;;54.13;25.85;;;;;;;5.53;100.00;101260.78;5056336;28;20063;-44
2022/12/19 06:22:49;;;;;;;49.65;25.30;;;;;;;5.61;100.00;101263.59;5070546;28;20032;-45
2022/12/19 06:25:15;;;;;;;54.40;25.35;;;;;;;5.72;100.00;101279.53;5066143;28;20024;-45
2022/12/19 06:27:40;;;;;;;52.65;24.55;;;;;;;5.78;100.00;101259.41;5055527;28;20400;-45
2022/12/19 06:30:06;;;;;;;56.00;26.40;;;;;;;5.71;100.00;101262.66;5057211;28;20110;-46
2022/12/19 06:32:32;;;;;;;50.55;26.58;;;;;;;5.77;100.00;101276.44;5069145;28;20058;-45
2022/12/19 06:34:57;;;;;;;64.78;27.77;;;;;;;5.77;100.00;101258.59;5061981;28;20033;-44
2022/12/19 06:37:22;;;;;;;57.55;27.85;;;;;;;5.71;100.00;101260.00;5050691;28;20033;-44
2022/12/19 06:39:49;;;;;;;55.22;28.02;;;;;;;5.77;100.00;101295.13;5057691;28;20097;-43
2022/12/19 06:42:23;;;;;;;47.03;24.17;;;;;;;5.75;100.00;101271.22;5050896;28;20110;-43
2022/12/19 06:44:53;;;;;;;53.13;23.67;;;;;;;5.75;100.00;101273.06;5059218;28;20057;-42
2022/12/19 06:47:19;;;;;;;43.78;22.13;;;;;;;5.75;100.00;101263.22;5050342;28;20124;-43
2022/12/19 06:49:47;;;;;;;47.13;20.95;;;;;;;5.84;100.00;101270.38;5063932;28;20157;-42
2022/12/19 06:52:13;;;;;;;47.30;20.83;;;;;;;5.86;100.00;101289.78;5066221;28;20048;-43
2022/12/19 06:54:39;;;;;;;37.00;19.23;;;;;;;5.84;100.00;101275.72;5059954;28;20033;-41
2022/12/19 06:57:04;;;;;;;39.53;20.13;;;;;;;5.83;100.00;101282.06;5051760;28;20076;-40
2022/12/19 06:59:29;;;;;;;36.17;19.17;;;;;;;5.82;100.00;101285.72;5054313;28;20025;-41
2022/12/19 07:02:13;;;;;;;36.63;17.65;;;;;;;5.86;100.00;101291.63;5057614;28;20037;-41
2022/12/19 07:04:47;;;;;;;35.63;16.38;;;;;;;6.07;100.00;101275.47;5064128;28;20021;-41
2022/12/19 07:07:13;;;;;;;34.80;17.45;;;;;;;5.96;100.00;101284.47;5051000;28;20485;-41
2022/12/19 07:09:38;;;;;;;35.08;16.27;;;;;;;5.98;100.00;101287.00;5055605;28;20036;-41
2022/12/19 07:12:07;;;;;;;34.65;16.05;;;;;;;6.00;100.00;101280.53;5057733;28;20484;-42
2022/12/19 07:14:32;;;;;;;29.13;15.50;;;;;;;6.01;100.00;101300.94;5057215;28;20039;-43
2022/12/19 07:16:59;;;;;;;36.55;14.82;;;;;;;6.03;100.00;101301.66;5061527;28;20028;-44
2022/12/19 07:19:25;;;;;;;35.13;16.75;;;;;;;6.04;100.00;101299.81;5049739;28;20035;-44
2022/12/19 07:21:50;;;;;;;32.38;15.70;;;;;;;6.07;100.00;101312.88;5057242;28;20017;-38
2022/12/19 07:24:15;;;;;;;28.92;14.52;;;;;;;6.13;100.00;101323.00;5059889;28;20518;-39
2022/12/19 07:26:42;;;;;;;29.45;13.98;;;;;;;6.12;100.00;101295.44;5062741;28;20048;-39
2022/12/19 07:29:08;;;;;;;31.90;16.10;;;;;;;6.12;100.00;101316.81;5082826;28;20064;-38
2022/12/19 07:31:33;;;;;;;29.20;14.10;;;;;;;6.12;100.00;101311.47;5065505;28;20055;-36
2022/12/19 07:33:59;;;;;;;25.35;12.85;;;;;;;6.15;100.00;101321.03;5067646;28;20614;-35
2022/12/19 07:36:24;;;;;;;26.75;14.18;;;;;;;6.18;100.00;101315.41;5070464;28;20400;-38
2022/12/19 07:38:49;;;;;;;25.38;13.25;;;;;;;6.19;100.00;101322.44;5069183;28;20404;-37
2022/12/19 07:41:15;;;;;;;24.17;12.48;;;;;;;6.22;100.00;101310.63;5073476;28;20384;-36
2022/12/19 07:43:41;;;;;;;25.80;12.85;;;;;;;6.23;100.00;101323.84;5083305;28;20024;-36
2022/12/19 07:46:06;;;;;;;25.50;13.05;;;;;;;6.29;100.00;101312.59;5072334;28;20050;-36
2022/12/19 07:48:31;;;;;;;23.33;12.57;;;;;;;6.29;100.00;101325.09;5058294;28;20362;-37
2022/12/19 07:50:57;;;;;;;23.40;12.57;;;;;;;6.26;100.00;101312.84;5064602;28;20047;-37
2022/12/19 07:53:22;;;;;;;23.40;12.75;;;;;;;6.29;100.00;101325.97;5064178;28;20483;-36
2022/12/19 07:55:51;;;;;;;22.70;12.27;;;;;;;6.30;100.00;101330.31;5057745;28;20514;-38
2022/12/19 07:58:16;;;;;;;23.95;12.60;;;;;;;6.31;100.00;101329.31;5059755;28;20373;-38
2022/12/19 08:00:42;;;;;;;21.38;12.02;;;;;;;6.31;100.00;101337.34;5056316;28;20021;-38
2022/12/19 08:03:07;;;;;;;23.50;11.60;;;;;;;6.32;100.00;101338.19;5064624;28;20459;-39
2022/12/19 08:05:33;;;;;;;28.00;11.32;;;;;;;6.35;100.00;101343.25;5069430;28;20034;-40
2022/12/19 08:07:58;;;;;;;23.45;12.65;;;;;;;6.31;100.00;101348.03;5057657;28;20021;-43
2022/12/19 08:10:23;;;;;;;21.58;10.95;;;;;;;6.30;100.00;101335.66;5056649;28;20043;-42
2022/12/19 08:12:49;;;;;;;23.40;12.40;;;;;;;6.30;100.00;101343.69;5059770;28;20028;-42
2022/12/19 08:15:14;;;;;;;28.77;12.90;;;;;;;6.27;100.00;101346.63;5063965;28;20036;-43
2022/12/19 08:17:40;;;;;;;21.08;12.25;;;;;;;6.26;100.00;101352.94;5071756;28;20556;-41
2022/12/19 08:20:07;;;;;;;27.52;12.43;;;;;;;6.30;100.00;101346.34;5054045;28;20029;-40
2022/12/19 08:22:32;;;;;;;21.83;11.75;;;;;;;6.31;100.00;101334.66;5063919;28;20032;-38
2022/12/19 08:24:58;;;;;;;23.05;11.45;;;;;;;6.31;100.00;101347.19;5055278;28;20032;-39
2022/12/19 08:27:23;;;;;;;26.48;12.65;;;;;;;6.28;100.00;101347.47;5058832;28;20045;-39
2022/12/19 08:29:48;;;;;;;21.90;12.50;;;;;;;6.30;100.00;101350.84;5058380;28;20074;-40
2022/12/19 08:32:15;;;;;;;22.83;11.75;;;;;;;6.31;100.00;101342.69;5055002;28;20108;-39
2022/12/19 08:34:40;;;;;;;21.33;11.65;;;;;;;6.33;100.00;101345.22;5055501;28;20036;-37
2022/12/19 08:37:06;;;;;;;19.52;11.05;;;;;;;6.37;100.00;101347.47;5055179;28;20029;-38
2022/12/19 08:39:32;;;;;;;22.70;11.60;;;;;;;6.36;100.00;101345.78;5066606;28;20056;-37
2022/12/19 08:41:57;;;;;;;21.90;11.90;;;;;;;6.38;100.00;101351.81;5076887;28;20048;-36
2022/12/19 08:44:22;;;;;;;30.17;11.85;;;;;;;6.41;100.00;101352.53;5076508;28;20503;-37
2022/12/19 08:46:48;;;;;;;22.02;10.70;;;;;;;6.43;100.00;101355.91;5074091;28;20467;-37
2022/12/19 08:49:14;;;;;;;24.63;12.02;;;;;;;6.46;100.00;101345.78;5065594;28;20483;-36
2022/12/19 08:51:39;;;;;;;18.67;10.95;;;;;;;6.50;100.00;101346.31;5054389;28;20060;-37
2022/12/19 08:54:04;;;;;;;19.20;10.65;;;;;;;6.48;100.00;101364.38;5071123;28;20025;-36
2022/12/19 08:56:30;;;;;;;20.90;10.23;;;;;;;6.54;100.00;101353.09;5058355;28;20036;-36
2022/12/19 08:58:55;;;;;;;19.92;10.93;;;;;;;6.52;100.00;101352.38;5057055;28;20031;-35
2022/12/19 09:01:22;;;;;;;16.88;9.85;;;;;;;6.53;100.00;101343.34;5063550;28;20049;-37
2022/12/19 09:03:48;;;;;;;16.83;10.27;;;;;;;6.54;100.00;101348.56;5058252;28;20408;-36
2022/12/19 09:06:14;;;;;;;19.77;10.27;;;;;;;6.51;100.00;101343.50;5064628;28;20057;-38
2022/12/19 09:08:40;;;;;;;21.33;10.32;;;;;;;6.54;100.00;101353.91;5075581;28;20028;-38
2022/12/19 09:11:11;;;;;;;18.05;10.52;;;;;;;6.57;100.00;101350.13;5063085;28;20043;-37
2022/12/19 09:13:38;;;;;;;21.52;10.25;;;;;;;6.63;100.00;101368.25;5069706;28;20039;-37
2022/12/19 09:16:05;;;;;;;16.23;9.50;;;;;;;6.67;100.00;101350.09;5054560;28;20120;-38
2022/12/19 09:18:31;;;;;;;17.45;9.90;;;;;;;6.65;100.00;101349.41;5067047;28;20500;-37
2022/12/19 09:20:57;;;;;;;17.00;9.43;;;;;;;6.65;100.00;101350.25;5073396;28;20107;-35
2022/12/19 09:23:25;;;;;;;20.15;9.32;;;;;;;6.71;100.00;101360.34;5068700;28;20040;-38
2022/12/19 09:25:51;;;;;;;15.02;9.18;;;;;;;6.75;100.00;101353.75;5056535;28;20068;-36
2022/12/19 09:28:17;;;;;;;24.85;9.38;;;;;;;6.79;100.00;101360.50;5060865;28;20052;-37
2022/12/19 09:30:42;;;;;;;19.35;10.35;;;;;;;6.76;100.00;101357.25;5069534;28;20040;-36
2022/12/19 09:33:07;;;;;;;13.75;8.52;;;;;;;6.78;100.00;101369.50;5067465;28;20410;-37
2022/12/19 09:35:33;;;;;;;20.58;10.07;;;;;;;6.75;100.00;101364.44;5055587;28;20039;-37
2022/12/19 09:37:58;;;;;;;18.48;10.20;;;;;;;6.76;100.00;101358.09;5062063;28;20352;-36
2022/12/19 09:40:24;;;;;;;15.75;9.82;;;;;;;6.80;100.00;101364.00;5070589;28;20020;-36
2022/12/19 09:43:09;;;;;;;17.52;10.50;;;;;;;6.79;100.00;101373.00;5065865;28;20021;-37
2022/12/19 09:45:47;;;;;;;24.92;10.20;;;;;;;6.76;100.00;101376.81;5066919;28;20136;-37
2022/12/19 09:48:14;;;;;;;20.48;9.10;;;;;;;6.79;100.00;101352.47;5062614;28;20033;-39
2022/12/19 09:50:55;;;;;;;18.00;9.75;;;;;;;6.82;100.00;101362.88;5064847;28;20029;-36
2022/12/19 09:53:28;;;;;;;21.13;9.40;;;;;;;6.81;100.00;101371.03;5059950;28;20373;-36
2022/12/19 09:55:56;;;;;;;16.08;9.73;;;;;;;6.86;100.00;101367.94;5055538;28;20197;-36
2022/12/19 09:58:35;;;;;;;17.10;9.32;;;;;;;6.90;100.00;101361.28;5068778;28;20028;-35
2022/12/19 10:01:06;;;;;;;19.35;8.73;;;;;;;6.93;100.00;101353.84;5061510;28;20418;-36
2022/12/19 10:03:35;;;;;;;18.13;9.15;;;;;;;6.97;100.00;101370.44;5059055;28;20480;-36
2022/12/19 10:06:19;;;;;;;14.85;8.18;;;;;;;7.00;100.00;101365.66;5051797;28;20124;-37
2022/12/19 10:08:44;;;;;;;14.65;8.63;;;;;;;7.04;100.00;101366.19;5060784;28;20375;-36
2022/12/19 10:11:38;;;;;;;17.98;8.13;;;;;;;7.07;100.00;101360.53;5056446;28;20029;-35
2022/12/19 10:14:32;;;;;;;13.05;7.55;;;;;;;7.08;100.00;101356.88;5065011;28;20046;-36
2022/12/19 10:17:32;;;;;;;15.07;7.50;;;;;;;7.14;100.00;101364.34;5052961;28;20103;-37
2022/12/19 10:20:12;;;;;;;13.75;7.32;;;;;;;7.15;100.00;101368.69;5057530;28;20028;-38
2022/12/19 10:22:43;;;;;;;13.63;7.22;;;;;;;7.18;100.00;101365.72;5053179;28;20092;-37
2022/12/19 10:25:27;;;;;;;13.27;7.72;;;;;;;7.18;100.00;101372.91;5069638;28;20068;-37
2022/12/19 10:28:05;;;;;;;12.38;7.28;;;;;;;7.17;100.00;101373.91;5053936;28;20105;-34
2022/12/19 10:30:38;;;;;;;16.63;8.05;;;;;;;7.17;100.00;101361.34;5054156;28;20036;-35
2022/12/19 10:33:15;;;;;;;15.88;7.75;;;;;;;7.15;100.00;101357.97;5049825;28;20032;-37
2022/12/19 10:35:42;;;;;;;13.38;7.57;;;;;;;7.13;100.00;101359.94;5057185;28;20029;-38
2022/12/19 10:38:10;;;;;;;11.60;7.23;;;;;;;7.14;100.00;101358.97;5069249;28;20402;-40
2022/12/19 10:40:54;;;;;;;12.20;7.38;;;;;;;7.16;100.00;101367.72;5064147;28;20029;-40
2022/12/19 10:43:33;;;;;;;12.57;7.38;;;;;;;7.18;100.00;101351.47;5061770;28;20093;-39
2022/12/19 10:46:02;;;;;;;13.80;7.40;;;;;;;7.21;100.00;101362.75;5047517;28;20071;-38
2022/12/19 10:48:29;;;;;;;13.80;8.02;;;;;;;7.23;100.00;101357.25;5056600;28;20127;-38
2022/12/19 10:50:54;;;;;;;11.63;7.28;;;;;;;7.26;100.00;101354.25;5065651;28;20045;-36
2022/12/19 10:53:28;;;;;;;12.02;7.65;;;;;;;7.29;100.00;101358.47;5070338;28;20044;-35
2022/12/19 10:55:55;;;;;;;15.80;7.38;;;;;;;7.32;100.00;101345.66;5072888;28;20344;-38
2022/12/19 10:58:35;;;;;;;13.40;7.10;;;;;;;7.35;100.00;101358.75;5062103;28;20060;-36
2022/12/19 11:01:18;;;;;;;17.55;7.10;;;;;;;7.44;100.00;101346.28;5062269;28;20052;-35
2022/12/19 11:03:47;;;;;;;11.38;7.05;;;;;;;7.46;100.00;101366.56;5061483;28;20103;-37
2022/12/19 11:06:34;;;;;;;15.25;6.95;;;;;;;7.49;100.00;101349.38;5066631;28;20032;-36
2022/12/19 11:09:18;;;;;;;14.63;8.37;;;;;;;7.49;100.00;101344.00;5077222;28;20037;-37
2022/12/19 11:11:46;;;;;;;20.20;8.23;;;;;;;7.50;100.00;101344.84;5055249;28;20116;-35
2022/12/19 11:14:20;;;;;;;16.23;7.97;;;;;;;7.54;100.00;101341.72;5066809;28;20017;-37
2022/12/19 11:16:45;;;;;;;12.70;7.18;;;;;;;7.61;100.00;101353.53;5054755;28;20044;-36
2022/12/19 11:19:41;;;;;;;10.15;7.07;;;;;;;7.58;100.00;101340.44;5050832;28;20025;-36
2022/12/19 11:22:15;;;;;;;18.95;8.40;;;;;;;7.59;100.00;101344.81;5057633;28;20114;-35